Airfield :
LOGIN :

Register | Disclaimer

   EN    FR    IT 

 










Legend :    VFR   Marginal VFR   IFR   Intensive IFR   Very Intensive IFR
Visi :
Ceiling :
>= 8 km
>= 3000ft
5 to 8 km
1000 to 3000 ft
1500m to 5 km
500 to 1000 ft
800 to 1500m
200 to 500 ft
< 800m
< 200 ft
Symbols :   Thunderstorms  Fog  Heavy snow  Heavy precipitations  Wind > 20 kt
SIGMETs :     Misc.  Thunderstorms  Icing  Turbulence  Mountain Waves  Volcanic Ashes






- Airport Elevation : 1768 ft


LEHC - Huesca Pirineos

CURRENT METAR :
  • 280800Z 29007KT 260V330 CAVOK 18/12 Q1017

EXPIRED METARs :
  • 280730Z 28007KT 230V310 CAVOK 17/12 Q1017
  • 280700Z 28007KT 240V320 CAVOK 15/11 Q1017
  • 280630Z AUTO 29007KT 250V310 CAVOK 14/11 Q1017
  • 280600Z AUTO 28007KT 240V330 CAVOK 13/11 Q1017
  • 280530Z AUTO 30005KT 260V340 CAVOK 13/11 Q1017

TAF TAF LEHC
Valid from the 28 at 03:00 until the 29 at 03:00 UTC


280200Z 2803/2903 31005KT CAVOK TX32/2815Z TN12/2806Z
BECMG 2808/2810 26010KT
BECMG 2818/2820 32006KT



MET'MAP, your aeronautical weather chart ! - Copyright ORBIFLY December 2007 - Disclaimer

ORBIFLY MET'MAP TEAM :

Programming & Development : Alexandra Zaïnal
Original concept : Baudouin d'Aumeries
Technical & hardware support : Manuel Goepfert
Assistance : Marc-Olivier Méhu

Contact : metmap@orbifly.com




SOURCES & CREDITS :

   NOAA